createdAt,value
2022-08-03T00:01:44.730Z,101328.19
2022-08-03T00:04:13.238Z,101326.44
2022-08-03T00:06:41.109Z,101332.84
2022-08-03T00:09:10.742Z,101326.66
2022-08-03T00:11:39.409Z,101327.78
2022-08-03T00:14:08.268Z,101324.34
2022-08-03T00:16:36.268Z,101319.06
2022-08-03T00:19:04.580Z,101314.06
2022-08-03T00:21:32.459Z,101324.09
2022-08-03T00:24:00.266Z,101324.31
2022-08-03T00:26:29.567Z,101324.38
2022-08-03T00:28:57.512Z,101313.66
2022-08-03T00:31:39.791Z,101321.03
2022-08-03T00:34:13.232Z,101315.66
2022-08-03T00:36:41.429Z,101315.00
2022-08-03T00:39:09.694Z,101317.88
2022-08-03T00:41:39.006Z,101314.34
2022-08-03T00:44:06.905Z,101310.88
2022-08-03T00:46:34.750Z,101305.56
2022-08-03T00:49:03.401Z,101305.72
2022-08-03T00:51:31.365Z,101297.72
2022-08-03T00:53:59.213Z,101303.28
2022-08-03T00:56:27.828Z,101301.63
2022-08-03T00:58:58.755Z,101306.38
2022-08-03T01:01:26.633Z,101297.44
2022-08-03T01:04:00.037Z,101293.88
2022-08-03T01:06:35.351Z,101295.81
2022-08-03T01:09:10.580Z,101293.16
2022-08-03T01:11:59.907Z,101301.53
2022-08-03T01:14:35.534Z,101296.25
2022-08-03T01:17:08.591Z,101300.88
2022-08-03T01:19:47.673Z,101291.09
2022-08-03T01:22:29.715Z,101296.63
2022-08-03T01:25:04.235Z,101304.03
2022-08-03T01:27:44.491Z,101289.94
2022-08-03T01:30:14.133Z,101301.00
2022-08-03T01:32:54.491Z,101296.53
2022-08-03T01:35:35.516Z,101297.50
2022-08-03T01:38:11.114Z,101294.91
2022-08-03T01:40:40.736Z,101297.88
2022-08-03T01:43:12.783Z,101290.88
2022-08-03T01:45:44.955Z,101292.69
2022-08-03T01:48:13.864Z,101293.66
2022-08-03T01:50:42.141Z,101290.94
2022-08-03T01:53:11.039Z,101295.56
2022-08-03T01:55:41.207Z,101285.69
2022-08-03T01:58:09.686Z,101282.13
2022-08-03T02:00:38.873Z,101282.16
2022-08-03T02:03:09.446Z,101281.31
2022-08-03T02:05:39.060Z,101278.59
2022-08-03T02:08:10.136Z,101275.38
2022-08-03T02:10:39.078Z,101281.91
2022-08-03T02:13:09.751Z,101288.44
2022-08-03T02:15:38.982Z,101283.94
2022-08-03T02:18:10.644Z,101286.66
2022-08-03T02:20:39.869Z,101283.38
2022-08-03T02:23:08.008Z,101287.88
2022-08-03T02:25:40.037Z,101289.50
2022-08-03T02:28:13.127Z,101285.94
2022-08-03T02:30:44.563Z,101288.66
2022-08-03T02:33:19.815Z,101289.59
2022-08-03T02:35:48.786Z,101285.09
2022-08-03T02:38:20.462Z,101291.53
2022-08-03T02:40:48.714Z,101288.78
2022-08-03T02:43:19.170Z,101283.69
2022-08-03T02:45:49.233Z,101279.31
2022-08-03T02:48:22.701Z,101278.47
2022-08-03T02:50:52.910Z,101286.69
2022-08-03T02:53:22.445Z,101284.84
2022-08-03T02:55:51.261Z,101278.66
2022-08-03T02:58:21.698Z,101279.63
2022-08-03T03:00:51.771Z,101278.81
2022-08-03T03:03:23.315Z,101275.25
2022-08-03T03:05:57.615Z,101281.56
2022-08-03T03:08:28.139Z,101276.34
2022-08-03T04:02:43.720Z,101270.47
2022-08-03T04:10:27.439Z,101277.22
2022-08-03T04:12:17.562Z,101277.22
2022-08-03T04:18:51.769Z,101276.97
2022-08-03T04:22:33.325Z,101279.59
2022-08-03T04:26:11.757Z,101285.81
2022-08-03T04:30:05.784Z,101280.28
2022-08-03T04:33:23.031Z,101283.66
2022-08-03T04:40:29.877Z,101290.47
2022-08-03T04:54:16.170Z,101287.28
2022-08-03T05:03:25.217Z,101293.66
2022-08-03T05:06:11.490Z,101295.13
2022-08-03T05:09:49.927Z,101291.19
2022-08-03T05:14:49.807Z,101295.94
2022-08-03T05:17:48.496Z,101299.84
2022-08-03T05:20:56.935Z,101299.78
2022-08-03T05:23:32.228Z,101309.03
2022-08-03T05:26:30.987Z,101304.22
2022-08-03T05:31:12.738Z,101306.56
2022-08-03T05:32:40.404Z,101306.75
2022-08-03T05:35:57.589Z,101301.69
2022-08-03T05:39:35.357Z,101296.84
2022-08-03T05:47:52.617Z,101306.75
2022-08-03T05:51:26.278Z,101303.94
2022-08-03T06:03:40.380Z,101299.06
2022-08-03T06:06:00.195Z,101305.00
2022-08-03T06:12:27.235Z,101306.91
2022-08-03T06:19:19.750Z,101305.88
2022-08-03T06:22:35.971Z,101303.50
2022-08-03T06:28:53.247Z,101311.69
2022-08-03T06:31:33.359Z,101307.56
2022-08-03T06:34:31.357Z,101315.13
2022-08-03T06:37:29.554Z,101314.69
2022-08-03T06:40:21.602Z,101318.66
2022-08-03T06:42:56.794Z,101311.78
2022-08-03T06:45:41.155Z,101315.91
2022-08-03T06:48:33.040Z,101313.84
2022-08-03T06:52:04.955Z,101313.78
2022-08-03T06:54:25.100Z,101309.97
2022-08-03T06:57:24.569Z,101315.91
2022-08-03T07:01:03.437Z,101312.66
2022-08-03T07:03:04.661Z,101311.31
2022-08-03T07:05:58.692Z,101305.47
2022-08-03T07:08:34.473Z,101314.09
2022-08-03T07:11:22.377Z,101315.38
2022-08-03T07:14:28.310Z,101310.50
2022-08-03T07:16:57.200Z,101308.66
2022-08-03T07:19:33.029Z,101317.34
2022-08-03T07:22:24.852Z,101322.56
2022-08-03T07:25:09.111Z,101321.31
2022-08-03T07:27:40.944Z,101317.25
2022-08-03T07:30:28.682Z,101317.53
2022-08-03T07:33:11.100Z,101325.28
2022-08-03T07:35:50.997Z,101330.44
2022-08-03T07:38:28.489Z,101330.94
2022-08-03T07:41:13.102Z,101330.53
2022-08-03T07:45:43.846Z,101329.28
2022-08-03T07:47:07.248Z,101330.66
2022-08-03T07:49:55.809Z,101330.13
2022-08-03T07:56:03.313Z,101335.91
2022-08-03T07:58:54.116Z,101324.63
2022-08-03T08:01:39.546Z,101329.56
2022-08-03T08:05:05.465Z,101323.69
2022-08-03T08:10:30.930Z,101334.13
2022-08-03T08:13:54.470Z,101324.72
2022-08-03T08:16:40.777Z,101332.72
2022-08-03T08:19:23.567Z,101333.38
2022-08-03T08:22:48.912Z,101327.31
2022-08-03T08:25:58.925Z,101331.84
2022-08-03T08:28:57.983Z,101333.31
2022-08-03T08:35:05.414Z,101333.91
2022-08-03T08:41:53.477Z,101327.88
2022-08-03T08:45:14.834Z,101330.97
2022-08-03T08:48:29.941Z,101325.97
2022-08-03T08:51:59.318Z,101333.31
2022-08-03T08:54:27.648Z,101319.31
2022-08-03T08:57:49.049Z,101314.03
2022-08-03T09:00:29.410Z,101317.44
2022-08-03T09:03:51.211Z,101318.66
2022-08-03T09:10:11.279Z,101323.03
2022-08-03T09:12:53.362Z,101314.00
2022-08-03T09:15:57.164Z,101317.84
2022-08-03T09:18:32.295Z,101317.19
2022-08-03T09:21:31.599Z,101316.59
2022-08-03T09:24:41.087Z,101324.28
2022-08-03T09:27:38.305Z,101317.97
2022-08-03T09:30:34.381Z,101320.91
2022-08-03T09:33:10.565Z,101324.44
2022-08-03T09:35:54.811Z,101327.94
2022-08-03T09:38:43.653Z,101330.34
2022-08-03T09:41:28.987Z,101319.88
2022-08-03T09:44:03.580Z,101321.84
2022-08-03T09:46:38.066Z,101319.66
2022-08-03T09:49:23.682Z,101319.63
2022-08-03T09:52:32.193Z,101316.06
2022-08-03T09:56:33.541Z,101307.06
2022-08-03T09:59:30.684Z,101305.22
2022-08-03T10:02:33.148Z,101305.38
2022-08-03T10:05:10.447Z,101305.28
2022-08-03T10:08:40.773Z,101303.03
2022-08-03T10:11:50.140Z,101309.19
2022-08-03T10:14:50.709Z,101303.09
2022-08-03T10:23:33.164Z,101295.75
2022-08-03T10:26:22.684Z,101297.00
2022-08-03T10:29:22.523Z,101294.63
2022-08-03T10:32:24.264Z,101290.72
2022-08-03T10:35:20.044Z,101284.88
2022-08-03T10:41:59.944Z,101281.25
2022-08-03T10:45:28.485Z,101273.47
2022-08-03T10:51:48.336Z,101272.03
2022-08-03T10:55:09.962Z,101269.03
2022-08-03T10:58:30.685Z,101275.00
2022-08-03T11:01:23.423Z,101269.75
2022-08-03T11:04:58.799Z,101268.78
2022-08-03T11:08:07.354Z,101260.00
2022-08-03T11:14:10.904Z,101249.81
2022-08-03T11:17:33.048Z,101254.41
2022-08-03T11:20:15.288Z,101247.41
2022-08-03T11:24:02.850Z,101250.66
2022-08-03T11:26:51.358Z,101254.88
2022-08-03T11:30:08.316Z,101257.84
2022-08-03T11:33:55.418Z,101245.81
2022-08-03T11:36:31.976Z,101244.31
2022-08-03T11:39:57.417Z,101240.88
2022-08-03T11:43:40.477Z,101244.63
2022-08-03T12:10:25.931Z,101235.38
2022-08-03T12:12:56.992Z,101236.16
2022-08-03T12:15:27.309Z,101223.47
2022-08-03T12:17:57.844Z,101230.34
2022-08-03T12:20:34.480Z,101227.63
2022-08-03T12:23:07.111Z,101222.00
2022-08-03T12:25:39.112Z,101221.44
2022-08-03T12:28:28.365Z,101222.91
2022-08-03T12:31:03.207Z,101219.41
2022-08-03T12:33:31.288Z,101225.81
2022-08-03T12:36:08.314Z,101217.69
2022-08-03T12:38:39.565Z,101215.06
2022-08-03T12:41:13.504Z,101210.75
2022-08-03T12:43:50.035Z,101214.41
2022-08-03T12:46:18.971Z,101211.91
2022-08-03T12:49:08.969Z,101204.38
2022-08-03T12:51:39.238Z,101217.44
2022-08-03T12:54:07.599Z,101214.56
2022-08-03T12:56:37.015Z,101212.66
2022-08-03T12:59:25.773Z,101222.13
2022-08-03T13:02:04.370Z,101219.63
2022-08-03T13:04:34.819Z,101207.56
2022-08-03T13:07:04.173Z,101203.91
2022-08-03T13:09:42.648Z,101212.66
2022-08-03T13:12:13.576Z,101206.84
2022-08-03T13:14:41.886Z,101205.81
2022-08-03T13:17:09.855Z,101199.13
2022-08-03T13:19:39.563Z,101196.38
2022-08-03T13:22:15.157Z,101203.78
2022-08-03T13:24:43.881Z,101205.69
2022-08-03T13:28:02.565Z,101200.16
2022-08-03T13:30:02.167Z,101193.59
2022-08-03T13:32:29.915Z,101192.56
2022-08-03T13:34:57.723Z,101194.47
2022-08-03T13:37:26.564Z,101194.47
2022-08-03T13:40:00.331Z,101192.56
2022-08-03T13:42:34.017Z,101192.28
2022-08-03T13:45:02.614Z,101196.38
2022-08-03T13:47:30.479Z,101184.00
2022-08-03T13:50:01.437Z,101183.38
2022-08-03T13:52:31.388Z,101181.75
2022-08-03T13:54:59.833Z,101185.81
2022-08-03T13:58:04.380Z,101178.69
2022-08-03T14:00:27.987Z,101168.06
2022-08-03T14:03:05.063Z,101169.63
2022-08-03T14:05:38.475Z,101170.25
2022-08-03T14:08:07.233Z,101175.53
2022-08-03T14:10:36.633Z,101178.59
2022-08-03T14:13:04.964Z,101166.34
2022-08-03T14:15:37.790Z,101171.56
2022-08-03T14:18:06.965Z,101171.00
2022-08-03T14:20:36.587Z,101164.47
2022-08-03T14:23:12.968Z,101158.03
2022-08-03T14:25:49.894Z,101157.88
2022-08-03T14:28:20.259Z,101156.88
2022-08-03T14:30:49.643Z,101162.25
2022-08-03T14:33:17.516Z,101158.97
2022-08-03T14:35:46.699Z,101160.97
2022-08-03T14:38:14.859Z,101152.28
2022-08-03T14:40:43.251Z,101146.88
2022-08-03T14:43:11.223Z,101153.88
2022-08-03T14:45:39.684Z,101151.28
2022-08-03T14:50:30.652Z,101148.34
2022-08-03T14:50:57.009Z,101153.44
2022-08-03T14:53:24.947Z,101150.09
2022-08-03T14:55:53.427Z,101138.03
2022-08-03T14:58:22.057Z,101144.88
2022-08-03T15:00:51.389Z,101135.84
2022-08-03T15:03:23.682Z,101147.03
2022-08-03T15:05:52.878Z,101132.91
2022-08-03T15:08:21.028Z,101131.03
2022-08-03T15:10:49.386Z,101130.00
2022-08-03T15:13:17.911Z,101125.94
2022-08-03T15:15:45.827Z,101121.88
2022-08-03T15:18:13.615Z,101130.63
2022-08-03T15:20:45.949Z,101127.53
2022-08-03T15:23:15.098Z,101132.94
2022-08-03T15:26:30.091Z,101125.38
2022-08-03T15:28:31.400Z,101126.53
2022-08-03T15:30:59.314Z,101120.41
2022-08-03T15:33:27.271Z,101110.66
2022-08-03T15:35:57.302Z,101124.78
2022-08-03T15:38:25.912Z,101122.16
2022-08-03T15:40:55.422Z,101127.00
2022-08-03T15:43:23.386Z,101124.94
2022-08-03T15:46:12.621Z,101126.25
2022-08-03T15:48:39.319Z,101124.53
2022-08-03T15:51:09.288Z,101123.06
2022-08-03T15:53:37.396Z,101117.84
2022-08-03T15:56:12.152Z,101119.56
2022-08-03T15:59:03.433Z,101114.63
2022-08-03T16:01:31.253Z,101109.66
2022-08-03T16:03:59.026Z,101108.22
2022-08-03T16:06:35.277Z,101109.25
2022-08-03T16:09:24.174Z,101107.50
2022-08-03T16:11:54.378Z,101113.72
2022-08-03T16:14:34.235Z,101104.28
2022-08-03T16:17:06.022Z,101105.88
2022-08-03T16:19:33.970Z,101104.03
2022-08-03T16:22:04.936Z,101097.44
2022-08-03T16:24:34.049Z,101095.28
2022-08-03T16:27:05.495Z,101082.94
2022-08-03T16:29:35.751Z,101096.16
2022-08-03T16:32:09.315Z,101083.38
2022-08-03T16:34:38.081Z,101098.06
2022-08-03T16:37:35.363Z,101080.59
2022-08-03T16:39:55.800Z,101097.44
2022-08-03T16:42:23.620Z,101095.25
2022-08-03T16:44:51.405Z,101097.88
2022-08-03T16:47:21.817Z,101083.94
2022-08-03T16:49:53.743Z,101094.38
2022-08-03T16:52:26.415Z,101095.81
2022-08-03T16:54:54.773Z,101090.44
2022-08-03T16:57:56.307Z,101085.94
2022-08-03T17:00:33.247Z,101082.91
2022-08-03T17:03:04.124Z,101078.69
2022-08-03T17:05:47.006Z,101086.50
2022-08-03T17:08:26.255Z,101077.38
2022-08-03T17:10:55.663Z,101084.63
2022-08-03T17:13:27.726Z,101083.88
2022-08-03T17:16:12.086Z,101073.75
2022-08-03T17:18:48.308Z,101077.50
2022-08-03T17:21:23.812Z,101076.50
2022-08-03T17:24:00.013Z,101084.91
2022-08-03T17:26:30.468Z,101076.19
2022-08-03T17:29:11.109Z,101075.69
2022-08-03T17:31:49.436Z,101077.75
2022-08-03T17:34:18.895Z,101078.28
2022-08-03T17:37:03.730Z,101090.38
2022-08-03T17:39:58.700Z,101079.88
2022-08-03T17:42:30.213Z,101074.34
2022-08-03T17:45:02.287Z,101081.19
2022-08-03T17:47:42.088Z,101084.34
2022-08-03T17:50:23.929Z,101086.41
2022-08-03T17:53:07.306Z,101092.63
2022-08-03T17:55:55.830Z,101091.16
2022-08-03T17:58:38.093Z,101088.66
2022-08-03T18:01:59.274Z,101087.22
2022-08-03T18:04:30.351Z,101087.59
2022-08-03T18:07:00.508Z,101087.13
2022-08-03T18:10:03.508Z,101090.69
2022-08-03T18:12:51.760Z,101086.38
2022-08-03T18:15:29.546Z,101085.31
2022-08-03T18:18:10.297Z,101087.38
2022-08-03T18:20:42.701Z,101094.16
2022-08-03T18:23:24.866Z,101093.81
2022-08-03T18:26:04.812Z,101097.28
2022-08-03T18:28:35.900Z,101092.41
2022-08-03T18:31:05.670Z,101095.72
2022-08-03T18:34:16.659Z,101088.88
2022-08-03T18:36:30.620Z,101096.66
2022-08-03T18:39:00.436Z,101091.66
2022-08-03T18:41:32.232Z,101092.94
2022-08-03T18:44:08.719Z,101094.63
2022-08-03T18:46:54.897Z,101090.66
2022-08-03T18:49:36.745Z,101094.06
2022-08-03T18:52:12.137Z,101093.59
2022-08-03T18:55:03.867Z,101084.88
2022-08-03T18:57:43.162Z,101079.00
2022-08-03T19:00:15.658Z,101084.16
2022-08-03T19:02:50.229Z,101084.66
2022-08-03T19:05:21.611Z,101082.28
2022-08-03T19:07:58.465Z,101085.31
2022-08-03T19:10:57.776Z,101092.22
2022-08-03T19:13:36.126Z,101095.31
2022-08-03T19:16:15.626Z,101100.22
2022-08-03T19:18:49.653Z,101099.00
2022-08-03T19:21:18.067Z,101098.50
2022-08-03T19:23:46.543Z,101098.41
2022-08-03T19:29:15.190Z,101105.75
2022-08-03T19:31:58.784Z,101105.13
2022-08-03T19:34:30.187Z,101108.75
2022-08-03T19:36:58.811Z,101114.25
2022-08-03T19:39:26.996Z,101111.28
2022-08-03T19:42:08.093Z,101111.75
2022-08-03T19:44:40.932Z,101117.75
2022-08-03T19:47:17.088Z,101107.59
2022-08-03T19:50:06.254Z,101116.19
2022-08-03T19:52:51.945Z,101114.19
2022-08-03T19:55:22.975Z,101105.66
2022-08-03T19:57:57.848Z,101110.50
2022-08-03T20:00:38.108Z,101110.63
2022-08-03T20:03:19.646Z,101113.25
2022-08-03T20:05:54.159Z,101109.09
2022-08-03T20:08:23.421Z,101111.75
2022-08-03T20:10:57.773Z,101117.13
2022-08-03T20:13:28.398Z,101107.00
2022-08-03T20:15:56.318Z,101115.38
2022-08-03T20:18:26.403Z,101112.75
2022-08-03T20:20:55.639Z,101111.00
2022-08-03T20:23:25.776Z,101108.50
2022-08-03T20:26:05.463Z,101110.59
2022-08-03T20:28:50.389Z,101113.94
2022-08-03T20:31:23.811Z,101115.28
2022-08-03T20:34:01.948Z,101124.75
2022-08-03T20:36:30.304Z,101111.50
2022-08-03T20:38:59.737Z,101116.34
2022-08-03T20:41:27.828Z,101113.81
2022-08-03T20:44:00.839Z,101115.03
2022-08-03T20:46:41.389Z,101115.41
2022-08-03T20:49:19.500Z,101114.97
2022-08-03T20:51:52.584Z,101108.84
2022-08-03T20:54:31.102Z,101111.97
2022-08-03T20:57:03.704Z,101105.81
2022-08-03T20:59:47.345Z,101114.16
2022-08-03T21:02:29.882Z,101113.53
2022-08-03T21:05:03.505Z,101112.00
2022-08-03T21:08:04.301Z,101108.59
2022-08-03T21:10:30.456Z,101111.81
2022-08-03T21:13:02.202Z,101108.16
2022-08-03T21:13:15.488Z,101106.56
2022-08-03T21:16:04.760Z,101102.28
2022-08-03T21:18:38.785Z,101105.38
2022-08-03T21:21:11.158Z,101101.94
2022-08-03T21:23:49.007Z,101103.16
2022-08-03T21:26:19.144Z,101101.63
2022-08-03T21:28:47.984Z,101096.38
2022-08-03T21:31:24.860Z,101098.38
2022-08-03T21:33:55.501Z,101100.69
2022-08-03T21:36:25.491Z,101100.34
2022-08-03T21:38:57.050Z,101102.47
2022-08-03T21:41:26.184Z,101097.19
2022-08-03T21:43:53.922Z,101099.16
2022-08-03T21:46:23.944Z,101101.16
2022-08-03T21:48:56.116Z,101099.63
2022-08-03T21:51:26.929Z,101095.22
2022-08-03T21:54:03.606Z,101090.09
2022-08-03T21:56:37.177Z,101100.16
2022-08-03T21:59:07.669Z,101097.53
2022-08-03T22:01:37.018Z,101095.13
2022-08-03T22:04:07.103Z,101102.69
2022-08-03T22:06:36.445Z,101101.16
2022-08-03T22:09:06.716Z,101097.81
2022-08-03T22:11:35.060Z,101102.78
2022-08-03T22:14:02.995Z,101100.44
2022-08-03T22:16:30.839Z,101093.66
2022-08-03T22:18:58.612Z,101098.38
2022-08-03T22:21:36.367Z,101093.41
2022-08-03T22:24:07.400Z,101100.13
2022-08-03T22:26:37.074Z,101099.34
2022-08-03T22:29:08.903Z,101099.44
2022-08-03T22:31:57.446Z,101101.44
2022-08-03T22:34:27.442Z,101098.97
2022-08-03T22:37:00.141Z,101106.53
2022-08-03T22:39:30.598Z,101104.03
2022-08-03T22:41:59.211Z,101105.97
2022-08-03T22:44:27.546Z,101112.63
2022-08-03T22:46:56.490Z,101099.06
2022-08-03T22:49:24.872Z,101101.03
2022-08-03T22:51:53.156Z,101109.53
2022-08-03T22:54:20.994Z,101115.00
2022-08-03T22:56:50.998Z,101102.31
2022-08-03T22:59:39.283Z,101097.91
2022-08-03T23:02:20.562Z,101109.94
2022-08-03T23:04:50.703Z,101101.19
2022-08-03T23:07:31.239Z,101104.41
2022-08-03T23:10:01.634Z,101113.81
2022-08-03T23:12:33.847Z,101107.56
2022-08-03T23:15:03.277Z,101107.47
2022-08-03T23:17:32.694Z,101113.91
2022-08-03T23:20:04.067Z,101107.88
2022-08-03T23:22:32.311Z,101107.09
2022-08-03T23:25:03.554Z,101101.72
2022-08-03T23:27:33.994Z,101105.25
2022-08-03T23:30:02.966Z,101106.13
2022-08-03T23:32:31.756Z,101104.38
2022-08-03T23:35:19.371Z,101101.06
2022-08-03T23:38:04.006Z,101099.41
2022-08-03T23:40:37.965Z,101103.13
2022-08-03T23:43:07.994Z,101102.25
2022-08-03T23:45:45.585Z,101101.41
2022-08-03T23:48:13.707Z,101096.00
2022-08-03T23:50:46.084Z,101096.19
2022-08-03T23:53:19.242Z,101085.47
2022-08-03T23:55:57.012Z,101086.56
2022-08-03T23:58:39.828Z,101087.56
